createdAt,value
2019-02-09T00:00:11.402Z,43.40
2019-02-09T00:02:45.133Z,43.20
2019-02-09T00:05:18.362Z,43.40
2019-02-09T00:07:50.480Z,43.40
2019-02-09T00:10:22.642Z,44.00
2019-02-09T00:12:54.774Z,43.40
2019-02-09T00:15:26.944Z,43.30
2019-02-09T00:17:59.444Z,43.20
2019-02-09T00:20:31.606Z,43.40
2019-02-09T00:23:04.380Z,43.30
2019-02-09T00:25:36.678Z,43.30
2019-02-09T00:28:08.886Z,43.20
2019-02-09T00:30:41.033Z,43.10
2019-02-09T00:33:13.239Z,43.20
2019-02-09T00:35:45.408Z,43.10
2019-02-09T00:38:17.602Z,43.10
2019-02-09T00:40:49.757Z,42.90
2019-02-09T00:43:21.881Z,42.90
2019-02-09T00:45:54.101Z,43.10
2019-02-09T00:48:26.243Z,43.10
2019-02-09T00:50:58.320Z,43.10
2019-02-09T00:53:30.460Z,43.10
2019-02-09T00:56:02.552Z,43.10
2019-02-09T00:58:34.708Z,43.20
2019-02-09T01:01:07.017Z,43.80
2019-02-09T01:03:39.217Z,43.00
2019-02-09T01:06:11.439Z,43.00
2019-02-09T01:08:43.596Z,42.90
2019-02-09T01:11:15.824Z,43.10
2019-02-09T01:13:47.955Z,43.10
2019-02-09T01:16:20.108Z,42.90
2019-02-09T01:18:52.228Z,42.90
2019-02-09T01:21:24.395Z,43.10
2019-02-09T01:23:56.681Z,42.80
2019-02-09T01:26:28.845Z,42.80
2019-02-09T01:29:01.046Z,42.80
2019-02-09T01:31:33.260Z,42.60
2019-02-09T01:34:05.380Z,42.70
2019-02-09T01:36:37.560Z,42.70
2019-02-09T01:39:09.926Z,43.10
2019-02-09T01:41:42.167Z,42.70
2019-02-09T01:44:14.284Z,42.90
2019-02-09T01:46:46.449Z,43.10
2019-02-09T01:49:18.607Z,43.10
2019-02-09T01:51:50.761Z,43.20
2019-02-09T01:54:22.879Z,43.20
2019-02-09T01:56:55.218Z,43.10
2019-02-09T01:59:27.463Z,43.10
2019-02-09T02:01:59.591Z,43.00
2019-02-09T02:04:31.817Z,43.10
2019-02-09T02:07:04.102Z,43.30
2019-02-09T02:09:36.260Z,43.60
2019-02-09T02:12:08.970Z,43.60
2019-02-09T02:14:41.145Z,43.80
2019-02-09T02:17:13.262Z,43.90
2019-02-09T02:19:45.511Z,44.00
2019-02-09T02:22:17.717Z,44.20
2019-02-09T02:24:49.863Z,44.30
2019-02-09T02:27:22.132Z,44.40
2019-02-09T02:29:54.424Z,44.30
2019-02-09T02:32:26.548Z,44.40
2019-02-09T02:34:58.696Z,44.50
2019-02-09T02:37:30.908Z,44.70
2019-02-09T02:40:03.060Z,44.90
2019-02-09T02:42:35.255Z,45.10
2019-02-09T02:45:09.214Z,45.30
2019-02-09T02:47:41.337Z,45.30
2019-02-09T02:50:16.822Z,45.40
2019-02-09T02:52:49.029Z,45.40
2019-02-09T02:55:23.923Z,45.50
2019-02-09T02:57:56.058Z,45.50
2019-02-09T03:00:32.899Z,45.70
2019-02-09T03:03:04.316Z,45.90
2019-02-09T03:05:36.460Z,46.20
2019-02-09T03:08:08.756Z,46.30
2019-02-09T03:10:40.902Z,46.40
2019-02-09T03:13:13.999Z,46.40
2019-02-09T03:15:46.262Z,46.80
2019-02-09T03:18:18.494Z,46.90
2019-02-09T03:20:50.652Z,47.20
2019-02-09T03:23:22.760Z,47.10
2019-02-09T03:25:54.915Z,47.30
2019-02-09T03:28:27.115Z,47.60
2019-02-09T03:30:59.364Z,47.00
2019-02-09T03:33:31.517Z,47.50
2019-02-09T03:36:03.759Z,47.60
2019-02-09T03:38:36.958Z,47.50
2019-02-09T03:41:09.120Z,47.70
2019-02-09T03:43:43.123Z,48.00
2019-02-09T03:46:15.267Z,47.80
2019-02-09T03:48:47.561Z,47.70
2019-02-09T03:51:20.227Z,47.80
2019-02-09T03:53:52.445Z,47.80
2019-02-09T03:56:24.774Z,48.10
2019-02-09T03:58:57.027Z,48.10
2019-02-09T04:01:29.175Z,48.10
2019-02-09T04:04:01.502Z,48.20
2019-02-09T04:06:35.256Z,48.20
2019-02-09T04:09:09.571Z,48.20
2019-02-09T04:11:41.811Z,48.40
2019-02-09T04:14:14.023Z,48.50
2019-02-09T04:16:46.197Z,48.50
2019-02-09T04:19:18.457Z,48.60
2019-02-09T04:21:50.843Z,48.40
2019-02-09T04:24:23.694Z,48.40
2019-02-09T04:26:55.956Z,48.50
2019-02-09T04:29:28.188Z,48.50
2019-02-09T04:32:00.356Z,48.40
2019-02-09T04:34:32.663Z,48.40
2019-02-09T04:37:05.001Z,48.40
2019-02-09T04:39:37.235Z,48.50
2019-02-09T04:42:09.450Z,48.50
2019-02-09T04:44:41.973Z,48.60
2019-02-09T04:47:14.280Z,48.50
2019-02-09T04:49:46.592Z,48.50
2019-02-09T04:52:18.734Z,48.50
2019-02-09T04:54:51.072Z,48.50
2019-02-09T04:57:23.210Z,48.40
2019-02-09T04:59:55.290Z,48.40
2019-02-09T05:02:27.445Z,48.50
2019-02-09T05:04:59.573Z,48.40
2019-02-09T05:07:31.802Z,48.60
2019-02-09T05:10:04.657Z,48.60
2019-02-09T05:12:36.954Z,48.70
2019-02-09T05:15:12.433Z,48.60
2019-02-09T05:17:44.661Z,48.80
2019-02-09T05:20:19.203Z,48.70
2019-02-09T05:22:51.453Z,48.80
2019-02-09T05:25:23.667Z,48.70
2019-02-09T05:27:55.900Z,48.70
2019-02-09T05:30:29.372Z,48.60
2019-02-09T05:33:01.519Z,48.80
2019-02-09T05:35:33.651Z,48.60
2019-02-09T05:38:05.868Z,48.70
2019-02-09T05:40:38.066Z,48.80
2019-02-09T05:43:10.215Z,48.70
2019-02-09T05:45:42.383Z,48.80
2019-02-09T05:48:14.525Z,48.70
2019-02-09T05:50:46.804Z,48.80
2019-02-09T05:53:18.954Z,48.90
2019-02-09T05:55:51.071Z,48.80
2019-02-09T05:58:23.251Z,48.90
2019-02-09T06:00:55.554Z,49.10
2019-02-09T06:03:27.701Z,49.00
2019-02-09T06:05:59.837Z,49.00
2019-02-09T06:08:32.365Z,49.00
2019-02-09T06:11:04.661Z,49.00
2019-02-09T06:13:36.775Z,49.00
2019-02-09T06:16:09.046Z,49.60
2019-02-09T06:18:41.165Z,49.20
2019-02-09T06:21:13.319Z,49.10
2019-02-09T06:23:45.448Z,49.00
2019-02-09T06:26:17.719Z,49.10
2019-02-09T06:28:49.844Z,49.20
2019-02-09T06:31:22.138Z,49.20
2019-02-09T06:33:54.264Z,49.00
2019-02-09T06:36:26.488Z,49.20
2019-02-09T06:38:58.611Z,49.10
2019-02-09T06:41:30.765Z,49.00
2019-02-09T06:44:02.900Z,49.00
2019-02-09T06:46:35.044Z,49.00
2019-02-09T06:49:07.166Z,49.00
2019-02-09T06:51:39.386Z,49.10
2019-02-09T06:54:11.570Z,49.70
2019-02-09T06:56:43.795Z,49.10
2019-02-09T06:59:15.984Z,49.00
2019-02-09T07:01:48.979Z,48.90
2019-02-09T07:04:21.129Z,49.00
2019-02-09T07:06:53.368Z,49.00
2019-02-09T07:09:25.489Z,49.00
2019-02-09T07:11:57.639Z,49.00
2019-02-09T07:14:29.780Z,48.90
2019-02-09T07:17:02.007Z,48.80
2019-02-09T07:19:34.126Z,48.70
2019-02-09T07:22:06.272Z,48.80
2019-02-09T07:24:38.411Z,48.70
2019-02-09T07:27:10.548Z,48.70
2019-02-09T07:29:42.668Z,48.60
2019-02-09T07:32:14.879Z,48.50
2019-02-09T07:34:48.632Z,48.50
2019-02-09T07:37:20.971Z,48.40
2019-02-09T07:39:53.130Z,48.30
2019-02-09T07:42:25.290Z,48.30
2019-02-09T07:44:58.509Z,48.30
2019-02-09T07:47:30.667Z,48.20
2019-02-09T07:50:02.827Z,48.10
2019-02-09T07:52:34.975Z,47.90
2019-02-09T07:55:09.449Z,47.80
2019-02-09T07:57:41.682Z,47.90
2019-02-09T08:00:19.153Z,48.00
2019-02-09T08:02:51.471Z,48.00
2019-02-09T08:05:25.816Z,48.00
2019-02-09T08:07:58.152Z,47.90
2019-02-09T08:10:32.151Z,47.90
2019-02-09T08:13:04.791Z,48.00
2019-02-09T08:15:36.921Z,48.00
2019-02-09T08:18:09.204Z,47.90
2019-02-09T08:20:41.344Z,48.00
2019-02-09T08:23:13.510Z,48.10
2019-02-09T08:25:45.643Z,48.10
2019-02-09T08:28:17.814Z,48.10
2019-02-09T08:30:50.055Z,48.10
2019-02-09T08:33:22.208Z,48.10
2019-02-09T08:35:54.681Z,48.10
2019-02-09T08:38:28.940Z,48.20
2019-02-09T08:41:00.937Z,48.10
2019-02-09T08:43:33.089Z,48.20
2019-02-09T08:46:05.380Z,48.20
2019-02-09T08:48:38.117Z,48.30
2019-02-09T08:51:14.160Z,48.20
2019-02-09T08:53:47.091Z,48.50
2019-02-09T08:56:19.372Z,48.40
2019-02-09T08:58:51.623Z,48.50
2019-02-09T09:01:23.768Z,48.50
2019-02-09T09:03:55.985Z,48.60
2019-02-09T09:06:28.117Z,48.60
2019-02-09T09:09:00.243Z,48.70
2019-02-09T09:11:32.650Z,48.90
2019-02-09T09:14:04.802Z,49.00
2019-02-09T09:16:37.035Z,49.10
2019-02-09T09:19:10.815Z,49.00
2019-02-09T09:21:42.933Z,49.00
2019-02-09T09:24:15.189Z,49.10
2019-02-09T09:26:47.445Z,49.20
2019-02-09T09:29:19.760Z,49.30
2019-02-09T09:31:51.902Z,49.20
2019-02-09T09:34:24.131Z,49.10
2019-02-09T09:36:56.265Z,49.10
2019-02-09T09:39:28.418Z,49.20
2019-02-09T09:42:00.539Z,49.40
2019-02-09T09:44:32.715Z,49.50
2019-02-09T09:47:05.110Z,49.50
2019-02-09T09:49:37.270Z,49.50
2019-02-09T09:52:10.535Z,49.50
2019-02-09T09:54:42.680Z,49.50
2019-02-09T09:57:14.882Z,49.40
2019-02-09T09:59:48.125Z,49.50
2019-02-09T10:02:20.186Z,49.30
2019-02-09T10:04:52.341Z,49.30
2019-02-09T10:07:24.454Z,49.40
2019-02-09T10:09:56.744Z,49.40
2019-02-09T10:12:28.971Z,49.30
2019-02-09T10:15:01.191Z,49.30
2019-02-09T10:17:34.287Z,49.00
2019-02-09T10:20:09.903Z,49.00
2019-02-09T10:22:42.896Z,49.10
2019-02-09T10:25:15.166Z,49.40
2019-02-09T10:27:47.359Z,49.00
2019-02-09T10:30:28.007Z,49.10
2019-02-09T10:33:00.062Z,48.80
2019-02-09T10:35:32.368Z,48.80
2019-02-09T10:38:04.507Z,48.90
2019-02-09T10:40:36.765Z,49.10
2019-02-09T10:43:08.991Z,48.90
2019-02-09T10:45:41.218Z,49.00
2019-02-09T10:48:13.397Z,49.20
2019-02-09T10:50:46.829Z,49.00
2019-02-09T10:53:18.975Z,49.00
2019-02-09T10:55:51.128Z,49.00
2019-02-09T10:58:23.267Z,49.10
2019-02-09T11:01:00.775Z,49.20
2019-02-09T11:03:32.980Z,49.30
2019-02-09T11:06:05.152Z,49.10
2019-02-09T11:08:37.295Z,49.20
2019-02-09T11:11:09.453Z,49.20
2019-02-09T11:13:41.734Z,49.20
2019-02-09T11:16:14.009Z,49.20
2019-02-09T11:18:46.175Z,49.00
2019-02-09T11:21:18.357Z,49.20
2019-02-09T11:23:51.485Z,49.00
2019-02-09T11:26:23.670Z,48.90
2019-02-09T11:28:55.867Z,49.00
2019-02-09T11:31:28.132Z,49.00
2019-02-09T11:34:00.336Z,49.10
2019-02-09T11:36:32.500Z,49.10
2019-02-09T11:39:07.492Z,49.00
2019-02-09T11:41:39.651Z,49.00
2019-02-09T11:44:11.779Z,49.20
2019-02-09T11:46:44.106Z,49.10
2019-02-09T11:49:16.845Z,49.10
2019-02-09T11:51:49.181Z,49.00
2019-02-09T11:54:21.339Z,48.90
2019-02-09T11:56:54.502Z,48.80
2019-02-09T11:59:28.029Z,48.90
2019-02-09T12:02:01.004Z,48.80
2019-02-09T12:04:33.287Z,48.70
2019-02-09T12:07:05.611Z,48.60
2019-02-09T12:09:37.758Z,48.60
2019-02-09T12:12:09.919Z,48.50
2019-02-09T12:14:42.056Z,48.40
2019-02-09T12:17:14.220Z,48.40
2019-02-09T12:19:49.600Z,48.50
2019-02-09T12:22:22.133Z,48.50
2019-02-09T12:24:54.334Z,48.60
2019-02-09T12:27:26.513Z,48.70
2019-02-09T12:29:58.737Z,48.80
2019-02-09T12:32:30.909Z,48.60
2019-02-09T12:35:03.141Z,48.70
2019-02-09T12:37:35.311Z,48.60
2019-02-09T12:40:10.649Z,48.70
2019-02-09T12:42:43.146Z,48.90
2019-02-09T12:45:16.339Z,49.20
2019-02-09T12:47:48.814Z,49.50
2019-02-09T12:50:22.021Z,49.90
2019-02-09T12:52:54.192Z,50.00
2019-02-09T12:55:26.508Z,49.70
2019-02-09T12:57:58.733Z,49.90
2019-02-09T13:00:35.902Z,50.00
2019-02-09T13:03:15.585Z,49.80
2019-02-09T13:05:47.705Z,49.70
2019-02-09T13:08:19.950Z,49.80
2019-02-09T13:10:52.445Z,49.90
2019-02-09T13:13:24.756Z,49.90
2019-02-09T13:15:56.889Z,50.20
2019-02-09T13:18:29.162Z,50.10
2019-02-09T13:21:01.460Z,50.20
2019-02-09T13:23:33.752Z,50.20
2019-02-09T13:26:05.913Z,50.20
2019-02-09T13:28:38.383Z,50.20
2019-02-09T13:31:10.526Z,50.20
2019-02-09T13:33:42.846Z,49.90
2019-02-09T13:36:15.045Z,49.90
2019-02-09T13:38:47.306Z,49.90
2019-02-09T13:41:19.447Z,50.10
2019-02-09T13:43:51.641Z,49.90
2019-02-09T13:46:23.795Z,50.00
2019-02-09T13:48:57.456Z,49.80
2019-02-09T13:51:29.887Z,50.10
2019-02-09T13:54:02.161Z,50.20
2019-02-09T13:56:34.368Z,50.40
2019-02-09T13:59:06.551Z,50.60
2019-02-09T14:01:38.712Z,50.40
2019-02-09T14:04:11.174Z,50.40
2019-02-09T14:06:43.305Z,50.50
2019-02-09T14:09:16.511Z,50.50
2019-02-09T14:11:48.784Z,50.40
2019-02-09T14:14:21.167Z,50.60
2019-02-09T14:16:53.307Z,50.80
2019-02-09T14:19:25.517Z,50.60
2019-02-09T14:21:57.732Z,50.70
2019-02-09T14:24:32.528Z,50.70
2019-02-09T14:27:04.732Z,50.80
2019-02-09T14:29:36.979Z,50.80
2019-02-09T14:32:09.178Z,50.70
2019-02-09T14:34:41.343Z,50.50
2019-02-09T14:37:13.498Z,50.80
2019-02-09T14:39:45.679Z,50.70
2019-02-09T14:42:17.955Z,50.90
2019-02-09T14:44:50.223Z,50.80
2019-02-09T14:47:22.530Z,50.80
2019-02-09T14:49:54.711Z,50.70
2019-02-09T14:52:26.832Z,50.80
2019-02-09T14:54:59.008Z,50.70
2019-02-09T14:57:31.307Z,50.70
2019-02-09T15:00:04.659Z,50.70
2019-02-09T15:02:37.440Z,50.80
2019-02-09T15:05:10.257Z,50.70
2019-02-09T15:07:42.496Z,50.80
2019-02-09T15:10:17.523Z,50.80
2019-02-09T15:12:49.659Z,50.70
2019-02-09T15:15:35.259Z,50.70
2019-02-09T15:18:09.457Z,50.60
2019-02-09T15:20:47.266Z,50.80
2019-02-09T15:23:19.394Z,50.80
2019-02-09T15:25:51.751Z,50.80
2019-02-09T15:28:23.875Z,50.80
2019-02-09T15:30:56.370Z,50.70
2019-02-09T15:33:31.907Z,50.80
2019-02-09T15:36:04.049Z,50.80
2019-02-09T15:38:36.206Z,50.60
2019-02-09T15:41:08.365Z,50.60
2019-02-09T15:43:40.630Z,51.10
2019-02-09T15:46:12.902Z,50.60
2019-02-09T15:48:45.028Z,50.60
2019-02-09T15:51:17.185Z,50.60
2019-02-09T15:53:49.396Z,50.40
2019-02-09T15:56:21.579Z,50.40
2019-02-09T15:58:53.706Z,50.30
2019-02-09T16:01:25.880Z,50.40
2019-02-09T16:03:58.014Z,50.40
2019-02-09T16:06:30.095Z,50.30
2019-02-09T16:09:02.295Z,50.20
2019-02-09T16:11:36.043Z,50.20
2019-02-09T16:14:08.167Z,50.30
2019-02-09T16:16:40.265Z,50.10
2019-02-09T16:19:12.485Z,50.10
2019-02-09T16:21:44.828Z,50.30
2019-02-09T16:24:16.931Z,50.00
2019-02-09T16:26:49.201Z,50.00
2019-02-09T16:29:21.485Z,50.00
2019-02-09T16:31:53.707Z,50.00
2019-02-09T16:34:25.882Z,50.10
2019-02-09T16:36:58.116Z,50.10
2019-02-09T16:39:30.255Z,49.90
2019-02-09T16:42:02.858Z,50.00
2019-02-09T16:44:35.120Z,50.00
2019-02-09T16:47:07.552Z,50.10
2019-02-09T16:49:39.679Z,50.00
2019-02-09T16:52:11.926Z,49.90
2019-02-09T16:54:44.171Z,49.90
2019-02-09T16:57:16.338Z,49.90
2019-02-09T16:59:48.524Z,49.90
2019-02-09T17:02:20.850Z,49.90
2019-02-09T17:04:53.228Z,49.80
2019-02-09T17:07:25.394Z,49.90
2019-02-09T17:09:57.590Z,49.90
2019-02-09T17:12:29.894Z,50.00
2019-02-09T17:15:02.173Z,50.00
2019-02-09T17:17:34.672Z,50.80
2019-02-09T17:20:08.603Z,50.30
2019-02-09T17:22:40.782Z,50.40
2019-02-09T17:25:13.821Z,50.60
2019-02-09T17:27:46.139Z,50.80
2019-02-09T17:30:29.747Z,50.80
2019-02-09T17:33:01.895Z,50.90
2019-02-09T17:35:34.159Z,50.90
2019-02-09T17:38:07.152Z,51.00
2019-02-09T17:40:46.128Z,50.90
2019-02-09T17:43:18.334Z,50.80
2019-02-09T17:45:58.212Z,50.80
2019-02-09T17:48:30.364Z,50.60
2019-02-09T17:51:02.563Z,50.50
2019-02-09T17:53:34.979Z,50.60
2019-02-09T17:56:07.358Z,50.50
2019-02-09T17:58:39.543Z,50.50
2019-02-09T18:01:13.346Z,50.40
2019-02-09T18:03:45.604Z,50.40
2019-02-09T18:06:17.927Z,50.40
2019-02-09T18:08:50.267Z,50.40
2019-02-09T18:11:22.544Z,50.40
2019-02-09T18:13:54.852Z,50.50
2019-02-09T18:16:26.992Z,50.60
2019-02-09T18:18:59.179Z,50.50
2019-02-09T18:21:31.502Z,50.50
2019-02-09T18:24:03.713Z,50.50
2019-02-09T18:26:35.836Z,50.60
2019-02-09T18:29:12.679Z,50.40
2019-02-09T18:31:44.674Z,50.50
2019-02-09T18:34:16.843Z,50.60
2019-02-09T18:36:49.046Z,50.50
2019-02-09T18:39:21.535Z,50.40
2019-02-09T18:41:53.653Z,50.40
2019-02-09T18:44:25.840Z,50.30
2019-02-09T18:46:58.099Z,50.20
2019-02-09T18:49:30.332Z,50.30
2019-02-09T18:52:02.465Z,50.20
2019-02-09T18:54:34.719Z,50.20
2019-02-09T18:57:06.854Z,50.30
2019-02-09T18:59:39.059Z,50.40
2019-02-09T19:02:11.229Z,50.40
2019-02-09T19:04:43.494Z,50.40
2019-02-09T19:07:15.647Z,50.40
2019-02-09T19:09:47.990Z,50.40
2019-02-09T19:12:20.139Z,50.40
2019-02-09T19:14:52.617Z,50.40
2019-02-09T19:17:24.782Z,50.50
2019-02-09T19:19:56.980Z,50.40
2019-02-09T19:22:29.214Z,50.40
2019-02-09T19:25:01.518Z,50.40
2019-02-09T19:27:33.740Z,50.40
2019-02-09T19:30:09.569Z,50.40
2019-02-09T19:32:41.729Z,50.40
2019-02-09T19:35:14.116Z,50.50
2019-02-09T19:37:46.503Z,50.40
2019-02-09T19:40:19.040Z,50.40
2019-02-09T19:42:51.309Z,50.40
2019-02-09T19:45:26.867Z,50.30
2019-02-09T19:47:59.023Z,50.30
2019-02-09T19:50:31.151Z,50.30
2019-02-09T19:53:03.458Z,50.20
2019-02-09T19:55:35.688Z,50.40
2019-02-09T19:58:07.934Z,50.10
2019-02-09T20:00:43.109Z,50.20
2019-02-09T20:03:15.271Z,50.30
2019-02-09T20:05:47.486Z,50.20
2019-02-09T20:08:19.755Z,50.20
2019-02-09T20:10:51.876Z,50.10
2019-02-09T20:13:24.108Z,50.10
2019-02-09T20:15:56.400Z,50.00
2019-02-09T20:18:28.639Z,50.00
2019-02-09T20:21:00.780Z,50.00
2019-02-09T20:23:32.979Z,50.00
2019-02-09T20:26:05.196Z,49.80
2019-02-09T20:28:37.405Z,49.70
2019-02-09T20:31:09.550Z,49.70
2019-02-09T20:33:41.862Z,49.70
2019-02-09T20:36:14.008Z,49.60
2019-02-09T20:38:46.196Z,49.60
2019-02-09T20:41:18.391Z,49.60
2019-02-09T20:43:50.589Z,49.50
2019-02-09T20:46:22.805Z,49.60
2019-02-09T20:48:55.014Z,49.80
2019-02-09T20:51:27.207Z,49.60
2019-02-09T20:53:59.514Z,49.50
2019-02-09T20:56:32.001Z,49.50
2019-02-09T20:59:04.191Z,49.50
2019-02-09T21:01:36.451Z,49.00
2019-02-09T21:04:08.505Z,49.40
2019-02-09T21:06:40.655Z,49.50
2019-02-09T21:09:12.861Z,49.50
2019-02-09T21:11:45.010Z,49.40
2019-02-09T21:14:17.126Z,49.50
2019-02-09T21:16:51.787Z,49.50
2019-02-09T21:19:23.107Z,49.40
2019-02-09T21:21:55.305Z,49.40
2019-02-09T21:24:27.426Z,49.40
2019-02-09T21:26:59.579Z,49.40
2019-02-09T21:29:31.712Z,49.40
2019-02-09T21:32:03.942Z,49.30
2019-02-09T21:34:37.143Z,49.40
2019-02-09T21:37:09.482Z,49.40
2019-02-09T21:39:41.711Z,49.30
2019-02-09T21:42:13.863Z,49.20
2019-02-09T21:44:46.160Z,49.20
2019-02-09T21:47:18.378Z,49.20
2019-02-09T21:49:50.572Z,49.20
2019-02-09T21:52:22.868Z,49.10
2019-02-09T21:54:54.992Z,49.10
2019-02-09T21:57:27.144Z,49.10
2019-02-09T21:59:59.520Z,49.10
2019-02-09T22:02:31.829Z,49.20
2019-02-09T22:05:04.333Z,49.10
2019-02-09T22:07:37.945Z,49.00
2019-02-09T22:10:13.063Z,49.00
2019-02-09T22:12:45.384Z,48.90
2019-02-09T22:15:18.666Z,48.90
2019-02-09T22:17:50.898Z,48.90
2019-02-09T22:20:24.276Z,48.90
2019-02-09T22:22:56.440Z,48.80
2019-02-09T22:25:28.697Z,48.80
2019-02-09T22:28:00.934Z,48.90
2019-02-09T22:30:33.144Z,48.70
2019-02-09T22:33:05.379Z,48.80
2019-02-09T22:35:37.528Z,48.70
2019-02-09T22:38:09.747Z,48.70
2019-02-09T22:40:42.012Z,48.70
2019-02-09T22:43:14.166Z,48.60
2019-02-09T22:45:46.373Z,48.50
2019-02-09T22:48:19.497Z,48.50
2019-02-09T22:50:51.652Z,49.10
2019-02-09T22:53:23.897Z,48.50
2019-02-09T22:55:56.044Z,48.50
2019-02-09T22:58:28.248Z,48.50
2019-02-09T23:01:30.580Z,48.50
2019-02-09T23:04:49.532Z,48.50
2019-02-09T23:07:31.950Z,48.30
2019-02-09T23:10:10.380Z,48.30
2019-02-09T23:12:48.376Z,48.50
2019-02-09T23:15:16.624Z,48.30
2019-02-09T23:17:48.857Z,48.40
2019-02-09T23:20:21.005Z,48.50
2019-02-09T23:22:53.145Z,48.20
2019-02-09T23:25:25.290Z,48.20
2019-02-09T23:27:57.566Z,48.20
2019-02-09T23:30:29.797Z,48.10
2019-02-09T23:33:02.007Z,48.10
2019-02-09T23:35:34.166Z,48.10
2019-02-09T23:38:06.445Z,48.30
2019-02-09T23:40:38.683Z,48.10
2019-02-09T23:43:10.893Z,48.00
2019-02-09T23:45:43.222Z,48.00
2019-02-09T23:48:15.513Z,48.00
2019-02-09T23:50:47.657Z,48.00
2019-02-09T23:53:19.783Z,47.80
2019-02-09T23:55:52.082Z,47.90
2019-02-09T23:58:24.340Z,47.80
